sensor_id;sensor_type;location;lat;lon;timestamp;temperature;humidity
21306;DHT22;10812;51.838;5.838;2023-08-24T00:00:59;18.70;99.90
21306;DHT22;10812;51.838;5.838;2023-08-24T00:03:28;18.70;99.90
21306;DHT22;10812;51.838;5.838;2023-08-24T00:05:56;18.60;99.90
21306;DHT22;10812;51.838;5.838;2023-08-24T00:08:24;18.60;99.90
21306;DHT22;10812;51.838;5.838;2023-08-24T00:10:53;18.60;99.90
21306;DHT22;10812;51.838;5.838;2023-08-24T00:13:22;18.60;99.90
21306;DHT22;10812;51.838;5.838;2023-08-24T00:15:50;18.60;99.90
21306;DHT22;10812;51.838;5.838;2023-08-24T00:18:19;18.50;99.90
21306;DHT22;10812;51.838;5.838;2023-08-24T00:20:48;18.50;99.90
21306;DHT22;10812;51.838;5.838;2023-08-24T00:23:17;18.50;99.90
21306;DHT22;10812;51.838;5.838;2023-08-24T00:25:45;18.50;99.90
21306;DHT22;10812;51.838;5.838;2023-08-24T00:28:14;18.40;99.90
21306;DHT22;10812;51.838;5.838;2023-08-24T00:30:42;18.40;99.90
21306;DHT22;10812;51.838;5.838;2023-08-24T00:33:10;18.40;99.90
21306;DHT22;10812;51.838;5.838;2023-08-24T00:35:38;18.40;99.90
21306;DHT22;10812;51.838;5.838;2023-08-24T00:38:06;18.40;99.90
21306;DHT22;10812;51.838;5.838;2023-08-24T00:40:34;18.40;99.90
21306;DHT22;10812;51.838;5.838;2023-08-24T00:43:03;18.40;99.90
21306;DHT22;10812;51.838;5.838;2023-08-24T00:45:32;18.40;99.90
21306;DHT22;10812;51.838;5.838;2023-08-24T00:48:02;18.30;99.90
21306;DHT22;10812;51.838;5.838;2023-08-24T00:50:30;18.30;99.90
21306;DHT22;10812;51.838;5.838;2023-08-24T00:52:59;18.30;99.90
21306;DHT22;10812;51.838;5.838;2023-08-24T00:55:27;18.20;99.90
21306;DHT22;10812;51.838;5.838;2023-08-24T00:57:56;18.20;99.90
21306;DHT22;10812;51.838;5.838;2023-08-24T01:00:24;18.20;99.90
21306;DHT22;10812;51.838;5.838;2023-08-24T01:02:53;18.20;99.90
21306;DHT22;10812;51.838;5.838;2023-08-24T01:05:22;18.20;99.90
21306;DHT22;10812;51.838;5.838;2023-08-24T01:07:50;18.20;99.90
21306;DHT22;10812;51.838;5.838;2023-08-24T01:10:18;18.20;99.90
21306;DHT22;10812;51.838;5.838;2023-08-24T01:12:56;18.20;99.90
21306;DHT22;10812;51.838;5.838;2023-08-24T01:15:33;18.20;99.90
21306;DHT22;10812;51.838;5.838;2023-08-24T01:18:10;18.20;99.90
21306;DHT22;10812;51.838;5.838;2023-08-24T01:20:40;18.10;99.90
21306;DHT22;10812;51.838;5.838;2023-08-24T01:23:21;18.10;99.90
21306;DHT22;10812;51.838;5.838;2023-08-24T01:25:52;18.10;99.90
21306;DHT22;10812;51.838;5.838;2023-08-24T01:28:22;18.00;99.90
21306;DHT22;10812;51.838;5.838;2023-08-24T01:30:50;18.00;99.90
21306;DHT22;10812;51.838;5.838;2023-08-24T01:33:19;18.10;99.90
21306;DHT22;10812;51.838;5.838;2023-08-24T01:35:47;18.10;99.90
21306;DHT22;10812;51.838;5.838;2023-08-24T01:38:15;18.10;99.90
21306;DHT22;10812;51.838;5.838;2023-08-24T01:40:53;18.20;99.90
21306;DHT22;10812;51.838;5.838;2023-08-24T01:43:28;18.20;99.90
21306;DHT22;10812;51.838;5.838;2023-08-24T01:46:11;18.20;99.90
21306;DHT22;10812;51.838;5.838;2023-08-24T01:48:42;18.20;99.90
21306;DHT22;10812;51.838;5.838;2023-08-24T01:51:11;18.30;99.90
21306;DHT22;10812;51.838;5.838;2023-08-24T01:53:40;18.30;99.90
21306;DHT22;10812;51.838;5.838;2023-08-24T01:56:09;18.30;99.90
21306;DHT22;10812;51.838;5.838;2023-08-24T01:58:39;18.30;99.90
21306;DHT22;10812;51.838;5.838;2023-08-24T02:01:08;18.40;99.90
21306;DHT22;10812;51.838;5.838;2023-08-24T02:03:37;18.30;99.90
21306;DHT22;10812;51.838;5.838;2023-08-24T02:06:06;18.30;99.90
21306;DHT22;10812;51.838;5.838;2023-08-24T02:08:35;18.30;99.90
21306;DHT22;10812;51.838;5.838;2023-08-24T02:11:03;18.30;99.90
21306;DHT22;10812;51.838;5.838;2023-08-24T02:13:31;18.20;99.90
21306;DHT22;10812;51.838;5.838;2023-08-24T02:16:04;18.30;99.90
21306;DHT22;10812;51.838;5.838;2023-08-24T02:18:32;18.30;99.90
21306;DHT22;10812;51.838;5.838;2023-08-24T02:21:06;18.30;99.90
21306;DHT22;10812;51.838;5.838;2023-08-24T02:23:35;18.30;99.90
21306;DHT22;10812;51.838;5.838;2023-08-24T02:26:03;18.30;99.90
21306;DHT22;10812;51.838;5.838;2023-08-24T02:28:31;18.30;99.90
21306;DHT22;10812;51.838;5.838;2023-08-24T02:31:04;18.30;99.90
21306;DHT22;10812;51.838;5.838;2023-08-24T02:33:34;18.30;99.90
21306;DHT22;10812;51.838;5.838;2023-08-24T02:36:03;18.30;99.90
21306;DHT22;10812;51.838;5.838;2023-08-24T02:38:31;18.30;99.90
21306;DHT22;10812;51.838;5.838;2023-08-24T02:41:03;18.30;99.90
21306;DHT22;10812;51.838;5.838;2023-08-24T02:43:32;18.30;99.90
21306;DHT22;10812;51.838;5.838;2023-08-24T02:46:01;18.30;99.90
21306;DHT22;10812;51.838;5.838;2023-08-24T02:48:32;18.30;99.90
21306;DHT22;10812;51.838;5.838;2023-08-24T02:51:01;18.20;99.90
21306;DHT22;10812;51.838;5.838;2023-08-24T02:53:30;18.20;99.90
21306;DHT22;10812;51.838;5.838;2023-08-24T02:55:58;18.30;99.90
21306;DHT22;10812;51.838;5.838;2023-08-24T02:58:27;18.20;99.90
21306;DHT22;10812;51.838;5.838;2023-08-24T03:06:20;18.10;99.90
21306;DHT22;10812;51.838;5.838;2023-08-24T03:08:50;18.10;99.90
21306;DHT22;10812;51.838;5.838;2023-08-24T03:11:18;18.10;99.90
21306;DHT22;10812;51.838;5.838;2023-08-24T03:14:05;18.20;99.90
21306;DHT22;10812;51.838;5.838;2023-08-24T03:16:33;18.30;99.90
21306;DHT22;10812;51.838;5.838;2023-08-24T03:19:01;18.30;99.90
21306;DHT22;10812;51.838;5.838;2023-08-24T03:21:31;18.30;99.90
21306;DHT22;10812;51.838;5.838;2023-08-24T03:23:59;18.20;99.90
21306;DHT22;10812;51.838;5.838;2023-08-24T03:26:27;18.20;99.90
21306;DHT22;10812;51.838;5.838;2023-08-24T03:28:55;18.20;99.90
21306;DHT22;10812;51.838;5.838;2023-08-24T03:31:23;18.10;99.90
21306;DHT22;10812;51.838;5.838;2023-08-24T03:33:52;18.00;99.90
21306;DHT22;10812;51.838;5.838;2023-08-24T03:36:20;18.10;99.90
21306;DHT22;10812;51.838;5.838;2023-08-24T03:38:50;18.00;99.90
21306;DHT22;10812;51.838;5.838;2023-08-24T03:41:18;18.00;99.90
21306;DHT22;10812;51.838;5.838;2023-08-24T03:43:46;17.90;99.90
21306;DHT22;10812;51.838;5.838;2023-08-24T03:46:14;17.90;99.90
21306;DHT22;10812;51.838;5.838;2023-08-24T03:48:42;17.90;99.90
21306;DHT22;10812;51.838;5.838;2023-08-24T03:51:10;17.90;99.90
21306;DHT22;10812;51.838;5.838;2023-08-24T03:53:38;18.00;99.90
21306;DHT22;10812;51.838;5.838;2023-08-24T03:56:08;18.00;99.90
21306;DHT22;10812;51.838;5.838;2023-08-24T03:58:36;18.10;99.90
21306;DHT22;10812;51.838;5.838;2023-08-24T04:01:04;18.00;99.90
21306;DHT22;10812;51.838;5.838;2023-08-24T04:03:34;18.00;99.90
21306;DHT22;10812;51.838;5.838;2023-08-24T04:06:02;17.90;99.90
21306;DHT22;10812;51.838;5.838;2023-08-24T04:08:30;17.90;99.90
21306;DHT22;10812;51.838;5.838;2023-08-24T04:10:58;17.80;99.90
21306;DHT22;10812;51.838;5.838;2023-08-24T04:13:26;17.80;99.90
21306;DHT22;10812;51.838;5.838;2023-08-24T04:15:54;17.80;99.90
21306;DHT22;10812;51.838;5.838;2023-08-24T04:18:22;17.70;99.90
21306;DHT22;10812;51.838;5.838;2023-08-24T04:20:52;17.70;99.90
21306;DHT22;10812;51.838;5.838;2023-08-24T04:23:24;17.70;99.90
21306;DHT22;10812;51.838;5.838;2023-08-24T04:25:52;17.70;99.90
21306;DHT22;10812;51.838;5.838;2023-08-24T04:28:20;17.70;99.90
21306;DHT22;10812;51.838;5.838;2023-08-24T04:30:54;17.70;99.90
21306;DHT22;10812;51.838;5.838;2023-08-24T04:33:23;17.70;99.90
21306;DHT22;10812;51.838;5.838;2023-08-24T04:35:51;17.60;99.90
21306;DHT22;10812;51.838;5.838;2023-08-24T04:38:19;17.50;99.90
21306;DHT22;10812;51.838;5.838;2023-08-24T04:40:49;17.50;99.90
21306;DHT22;10812;51.838;5.838;2023-08-24T04:43:18;17.50;99.90
21306;DHT22;10812;51.838;5.838;2023-08-24T04:45:49;17.50;99.90
21306;DHT22;10812;51.838;5.838;2023-08-24T04:48:21;17.40;99.90
21306;DHT22;10812;51.838;5.838;2023-08-24T04:50:49;17.50;99.90
21306;DHT22;10812;51.838;5.838;2023-08-24T04:53:18;17.50;99.90
21306;DHT22;10812;51.838;5.838;2023-08-24T04:55:46;17.50;99.90
21306;DHT22;10812;51.838;5.838;2023-08-24T04:58:14;17.50;99.90
21306;DHT22;10812;51.838;5.838;2023-08-24T05:00:42;17.60;99.90
21306;DHT22;10812;51.838;5.838;2023-08-24T05:03:11;17.70;99.90
21306;DHT22;10812;51.838;5.838;2023-08-24T05:05:41;17.80;99.90
21306;DHT22;10812;51.838;5.838;2023-08-24T05:08:09;17.80;99.90
21306;DHT22;10812;51.838;5.838;2023-08-24T05:10:39;17.80;99.90
21306;DHT22;10812;51.838;5.838;2023-08-24T05:24:32;18.10;99.90
21306;DHT22;10812;51.838;5.838;2023-08-24T05:27:00;18.20;99.90
21306;DHT22;10812;51.838;5.838;2023-08-24T05:29:28;18.20;99.90
21306;DHT22;10812;51.838;5.838;2023-08-24T05:31:56;18.20;99.90
21306;DHT22;10812;51.838;5.838;2023-08-24T05:34:24;18.30;99.90
21306;DHT22;10812;51.838;5.838;2023-08-24T05:36:52;18.30;99.90
21306;DHT22;10812;51.838;5.838;2023-08-24T05:39:20;18.40;99.90
21306;DHT22;10812;51.838;5.838;2023-08-24T05:41:51;18.50;99.90
21306;DHT22;10812;51.838;5.838;2023-08-24T05:44:20;18.70;99.90
21306;DHT22;10812;51.838;5.838;2023-08-24T05:46:48;18.80;99.90
21306;DHT22;10812;51.838;5.838;2023-08-24T05:49:16;18.90;99.90
21306;DHT22;10812;51.838;5.838;2023-08-24T05:51:44;19.00;99.90
21306;DHT22;10812;51.838;5.838;2023-08-24T05:54:12;19.00;99.90
21306;DHT22;10812;51.838;5.838;2023-08-24T05:56:40;19.00;99.90
21306;DHT22;10812;51.838;5.838;2023-08-24T05:59:10;18.90;99.90
21306;DHT22;10812;51.838;5.838;2023-08-24T06:01:38;19.00;99.90
21306;DHT22;10812;51.838;5.838;2023-08-24T06:04:08;19.20;99.90
21306;DHT22;10812;51.838;5.838;2023-08-24T06:06:37;19.30;99.90
21306;DHT22;10812;51.838;5.838;2023-08-24T06:09:07;19.30;99.90
21306;DHT22;10812;51.838;5.838;2023-08-24T06:11:37;19.40;99.90
21306;DHT22;10812;51.838;5.838;2023-08-24T06:14:07;20.30;99.90
21306;DHT22;10812;51.838;5.838;2023-08-24T06:16:36;21.60;99.90
21306;DHT22;10812;51.838;5.838;2023-08-24T06:19:04;22.30;99.90
21306;DHT22;10812;51.838;5.838;2023-08-24T06:21:32;22.80;99.90
21306;DHT22;10812;51.838;5.838;2023-08-24T06:24:00;24.10;99.90
21306;DHT22;10812;51.838;5.838;2023-08-24T06:26:30;24.00;99.90
21306;DHT22;10812;51.838;5.838;2023-08-24T06:28:58;24.30;99.90
21306;DHT22;10812;51.838;5.838;2023-08-24T06:31:26;24.10;99.90
21306;DHT22;10812;51.838;5.838;2023-08-24T06:33:55;24.60;99.90
21306;DHT22;10812;51.838;5.838;2023-08-24T06:36:23;25.20;99.90
21306;DHT22;10812;51.838;5.838;2023-08-24T06:38:51;25.60;99.90
21306;DHT22;10812;51.838;5.838;2023-08-24T06:41:19;25.80;99.90
21306;DHT22;10812;51.838;5.838;2023-08-24T06:43:48;25.90;99.90
21306;DHT22;10812;51.838;5.838;2023-08-24T06:46:16;26.30;99.90
21306;DHT22;10812;51.838;5.838;2023-08-24T06:48:44;26.80;99.90
21306;DHT22;10812;51.838;5.838;2023-08-24T06:51:13;27.30;99.90
21306;DHT22;10812;51.838;5.838;2023-08-24T06:53:41;27.20;99.90
21306;DHT22;10812;51.838;5.838;2023-08-24T06:56:10;27.60;99.90
21306;DHT22;10812;51.838;5.838;2023-08-24T06:58:38;28.30;99.90
21306;DHT22;10812;51.838;5.838;2023-08-24T07:01:06;28.70;99.90
21306;DHT22;10812;51.838;5.838;2023-08-24T07:03:34;27.50;99.90
21306;DHT22;10812;51.838;5.838;2023-08-24T07:06:05;27.60;99.90
21306;DHT22;10812;51.838;5.838;2023-08-24T07:08:34;28.70;99.90
21306;DHT22;10812;51.838;5.838;2023-08-24T07:11:04;30.20;99.90
21306;DHT22;10812;51.838;5.838;2023-08-24T07:13:32;30.90;99.90
21306;DHT22;10812;51.838;5.838;2023-08-24T07:16:01;31.30;99.90
21306;DHT22;10812;51.838;5.838;2023-08-24T07:18:30;31.80;99.90
21306;DHT22;10812;51.838;5.838;2023-08-24T07:20:58;31.50;99.90
21306;DHT22;10812;51.838;5.838;2023-08-24T07:23:26;32.20;99.90
21306;DHT22;10812;51.838;5.838;2023-08-24T07:25:56;31.60;99.90
21306;DHT22;10812;51.838;5.838;2023-08-24T07:28:24;32.20;99.90
21306;DHT22;10812;51.838;5.838;2023-08-24T07:30:52;33.10;99.10
21306;DHT22;10812;51.838;5.838;2023-08-24T07:33:23;33.70;98.20
21306;DHT22;10812;51.838;5.838;2023-08-24T07:35:51;33.30;98.40
21306;DHT22;10812;51.838;5.838;2023-08-24T07:38:19;33.50;97.80
21306;DHT22;10812;51.838;5.838;2023-08-24T07:40:48;32.40;97.30
21306;DHT22;10812;51.838;5.838;2023-08-24T07:43:17;33.10;96.80
21306;DHT22;10812;51.838;5.838;2023-08-24T07:45:45;33.10;96.90
21306;DHT22;10812;51.838;5.838;2023-08-24T07:48:13;32.80;97.00
21306;DHT22;10812;51.838;5.838;2023-08-24T07:50:42;33.50;96.70
21306;DHT22;10812;51.838;5.838;2023-08-24T07:53:10;34.00;95.90
21306;DHT22;10812;51.838;5.838;2023-08-24T07:55:38;34.30;95.50
21306;DHT22;10812;51.838;5.838;2023-08-24T07:58:06;34.80;94.00
21306;DHT22;10812;51.838;5.838;2023-08-24T08:00:35;34.10;94.20
21306;DHT22;10812;51.838;5.838;2023-08-24T08:03:04;33.80;94.50
21306;DHT22;10812;51.838;5.838;2023-08-24T08:05:32;33.70;94.20
21306;DHT22;10812;51.838;5.838;2023-08-24T08:08:01;33.50;94.40
21306;DHT22;10812;51.838;5.838;2023-08-24T08:10:29;33.50;94.30
21306;DHT22;10812;51.838;5.838;2023-08-24T08:12:57;33.40;94.90
21306;DHT22;10812;51.838;5.838;2023-08-24T08:15:25;33.00;94.70
21306;DHT22;10812;51.838;5.838;2023-08-24T08:17:54;33.20;95.00
21306;DHT22;10812;51.838;5.838;2023-08-24T08:20:23;33.70;94.60
21306;DHT22;10812;51.838;5.838;2023-08-24T08:22:51;33.50;94.40
21306;DHT22;10812;51.838;5.838;2023-08-24T08:25:19;33.40;94.70
21306;DHT22;10812;51.838;5.838;2023-08-24T08:27:49;33.80;94.90
21306;DHT22;10812;51.838;5.838;2023-08-24T08:30:18;34.00;94.10
21306;DHT22;10812;51.838;5.838;2023-08-24T08:32:47;33.70;94.70
21306;DHT22;10812;51.838;5.838;2023-08-24T08:35:17;33.40;95.00
21306;DHT22;10812;51.838;5.838;2023-08-24T08:37:45;32.90;95.20
21306;DHT22;10812;51.838;5.838;2023-08-24T08:40:13;32.90;95.30
21306;DHT22;10812;51.838;5.838;2023-08-24T08:42:41;33.10;95.20
21306;DHT22;10812;51.838;5.838;2023-08-24T08:45:10;32.70;95.20
21306;DHT22;10812;51.838;5.838;2023-08-24T08:47:38;31.70;96.30
21306;DHT22;10812;51.838;5.838;2023-08-24T08:50:09;31.60;96.60
21306;DHT22;10812;51.838;5.838;2023-08-24T08:52:38;32.00;96.20
21306;DHT22;10812;51.838;5.838;2023-08-24T08:55:07;31.90;96.30
21306;DHT22;10812;51.838;5.838;2023-08-24T08:57:37;31.90;97.00
21306;DHT22;10812;51.838;5.838;2023-08-24T09:00:11;31.80;96.80
21306;DHT22;10812;51.838;5.838;2023-08-24T09:02:42;31.50;98.00
21306;DHT22;10812;51.838;5.838;2023-08-24T09:05:12;31.60;97.60
21306;DHT22;10812;51.838;5.838;2023-08-24T09:07:42;31.50;98.20
21306;DHT22;10812;51.838;5.838;2023-08-24T09:10:10;31.60;97.90
21306;DHT22;10812;51.838;5.838;2023-08-24T09:12:38;32.20;97.40
21306;DHT22;10812;51.838;5.838;2023-08-24T09:15:07;32.00;97.70
21306;DHT22;10812;51.838;5.838;2023-08-24T09:17:35;31.60;98.10
21306;DHT22;10812;51.838;5.838;2023-08-24T09:20:06;31.20;98.90
21306;DHT22;10812;51.838;5.838;2023-08-24T09:22:35;30.70;99.10
21306;DHT22;10812;51.838;5.838;2023-08-24T09:25:08;30.60;99.50
21306;DHT22;10812;51.838;5.838;2023-08-24T09:27:37;31.10;99.00
21306;DHT22;10812;51.838;5.838;2023-08-24T09:30:06;30.90;99.40
21306;DHT22;10812;51.838;5.838;2023-08-24T09:32:34;30.30;99.90
21306;DHT22;10812;51.838;5.838;2023-08-24T09:35:04;30.30;99.90
21306;DHT22;10812;51.838;5.838;2023-08-24T09:37:34;30.10;99.90
21306;DHT22;10812;51.838;5.838;2023-08-24T09:40:03;30.40;99.90
21306;DHT22;10812;51.838;5.838;2023-08-24T09:42:39;30.00;99.90
21306;DHT22;10812;51.838;5.838;2023-08-24T09:45:12;30.10;99.90
21306;DHT22;10812;51.838;5.838;2023-08-24T09:47:45;30.30;99.90
21306;DHT22;10812;51.838;5.838;2023-08-24T09:50:14;30.60;99.50
21306;DHT22;10812;51.838;5.838;2023-08-24T09:52:42;30.60;99.70
21306;DHT22;10812;51.838;5.838;2023-08-24T09:55:12;29.90;99.90
21306;DHT22;10812;51.838;5.838;2023-08-24T09:57:43;29.80;99.90
21306;DHT22;10812;51.838;5.838;2023-08-24T10:00:13;29.70;99.90
21306;DHT22;10812;51.838;5.838;2023-08-24T10:02:48;29.70;99.90
21306;DHT22;10812;51.838;5.838;2023-08-24T10:05:20;29.80;99.90
21306;DHT22;10812;51.838;5.838;2023-08-24T10:08:07;29.70;99.90
21306;DHT22;10812;51.838;5.838;2023-08-24T10:10:37;29.40;99.90
21306;DHT22;10812;51.838;5.838;2023-08-24T10:13:10;29.20;99.90
21306;DHT22;10812;51.838;5.838;2023-08-24T10:15:42;28.90;99.90
21306;DHT22;10812;51.838;5.838;2023-08-24T10:18:15;28.40;99.90
21306;DHT22;10812;51.838;5.838;2023-08-24T10:20:43;28.30;99.90
21306;DHT22;10812;51.838;5.838;2023-08-24T10:23:13;28.10;99.90
21306;DHT22;10812;51.838;5.838;2023-08-24T10:25:44;27.90;99.90
21306;DHT22;10812;51.838;5.838;2023-08-24T10:28:15;27.80;99.90
21306;DHT22;10812;51.838;5.838;2023-08-24T10:30:44;27.60;99.90
21306;DHT22;10812;51.838;5.838;2023-08-24T10:33:14;27.30;99.90
21306;DHT22;10812;51.838;5.838;2023-08-24T10:35:43;27.10;99.90
21306;DHT22;10812;51.838;5.838;2023-08-24T10:38:26;26.90;99.90
21306;DHT22;10812;51.838;5.838;2023-08-24T10:41:01;26.80;99.90
21306;DHT22;10812;51.838;5.838;2023-08-24T10:43:34;26.80;99.90
21306;DHT22;10812;51.838;5.838;2023-08-24T10:46:03;26.90;99.90
21306;DHT22;10812;51.838;5.838;2023-08-24T10:48:57;26.80;99.90
21306;DHT22;10812;51.838;5.838;2023-08-24T10:51:25;27.00;99.90
21306;DHT22;10812;51.838;5.838;2023-08-24T10:53:56;27.00;99.90
21306;DHT22;10812;51.838;5.838;2023-08-24T10:56:34;27.00;99.90
21306;DHT22;10812;51.838;5.838;2023-08-24T10:59:17;27.00;99.90
21306;DHT22;10812;51.838;5.838;2023-08-24T11:01:54;26.90;99.90
21306;DHT22;10812;51.838;5.838;2023-08-24T11:04:23;27.10;99.90
21306;DHT22;10812;51.838;5.838;2023-08-24T11:06:53;27.10;99.90
21306;DHT22;10812;51.838;5.838;2023-08-24T11:09:23;27.10;99.90
21306;DHT22;10812;51.838;5.838;2023-08-24T11:11:59;27.10;99.90
21306;DHT22;10812;51.838;5.838;2023-08-24T11:14:29;27.20;99.90
21306;DHT22;10812;51.838;5.838;2023-08-24T11:16:59;27.10;99.90
21306;DHT22;10812;51.838;5.838;2023-08-24T11:19:29;27.10;99.90
21306;DHT22;10812;51.838;5.838;2023-08-24T11:21:58;27.00;99.90
21306;DHT22;10812;51.838;5.838;2023-08-24T11:24:27;26.80;99.90
21306;DHT22;10812;51.838;5.838;2023-08-24T11:26:55;26.80;99.90
21306;DHT22;10812;51.838;5.838;2023-08-24T11:29:28;26.90;99.90
21306;DHT22;10812;51.838;5.838;2023-08-24T11:31:57;27.10;99.90
21306;DHT22;10812;51.838;5.838;2023-08-24T11:34:25;27.40;99.90
21306;DHT22;10812;51.838;5.838;2023-08-24T11:36:54;27.70;99.90
21306;DHT22;10812;51.838;5.838;2023-08-24T11:39:23;27.90;99.90
21306;DHT22;10812;51.838;5.838;2023-08-24T11:42:00;28.20;99.90
21306;DHT22;10812;51.838;5.838;2023-08-24T11:44:29;28.30;99.90
21306;DHT22;10812;51.838;5.838;2023-08-24T11:46:58;28.50;99.90
21306;DHT22;10812;51.838;5.838;2023-08-24T11:49:26;28.50;99.90
21306;DHT22;10812;51.838;5.838;2023-08-24T11:51:55;28.50;99.90
21306;DHT22;10812;51.838;5.838;2023-08-24T11:54:23;28.40;99.90
21306;DHT22;10812;51.838;5.838;2023-08-24T11:56:52;28.50;99.90
21306;DHT22;10812;51.838;5.838;2023-08-24T11:59:20;28.50;99.90
21306;DHT22;10812;51.838;5.838;2023-08-24T12:01:51;28.50;99.90
21306;DHT22;10812;51.838;5.838;2023-08-24T12:04:19;28.50;99.90
21306;DHT22;10812;51.838;5.838;2023-08-24T12:06:47;28.30;99.90
21306;DHT22;10812;51.838;5.838;2023-08-24T12:09:15;28.00;99.90
21306;DHT22;10812;51.838;5.838;2023-08-24T12:11:43;27.90;99.90
21306;DHT22;10812;51.838;5.838;2023-08-24T12:14:17;27.90;99.90
21306;DHT22;10812;51.838;5.838;2023-08-24T12:16:46;27.90;99.90
21306;DHT22;10812;51.838;5.838;2023-08-24T12:19:17;27.80;99.90
21306;DHT22;10812;51.838;5.838;2023-08-24T12:21:50;27.70;99.90
21306;DHT22;10812;51.838;5.838;2023-08-24T12:24:19;27.60;99.90
21306;DHT22;10812;51.838;5.838;2023-08-24T12:26:55;27.50;99.90
21306;DHT22;10812;51.838;5.838;2023-08-24T12:29:25;27.70;99.90
21306;DHT22;10812;51.838;5.838;2023-08-24T12:31:57;27.80;99.90
21306;DHT22;10812;51.838;5.838;2023-08-24T12:34:26;27.80;99.90
21306;DHT22;10812;51.838;5.838;2023-08-24T12:36:54;27.80;99.90
21306;DHT22;10812;51.838;5.838;2023-08-24T12:39:22;27.80;99.90
21306;DHT22;10812;51.838;5.838;2023-08-24T12:41:51;27.80;99.90
21306;DHT22;10812;51.838;5.838;2023-08-24T12:44:19;28.00;99.90
21306;DHT22;10812;51.838;5.838;2023-08-24T12:46:47;28.20;99.90
21306;DHT22;10812;51.838;5.838;2023-08-24T12:49:15;28.50;99.90
21306;DHT22;10812;51.838;5.838;2023-08-24T12:51:45;28.70;99.90
21306;DHT22;10812;51.838;5.838;2023-08-24T12:54:14;28.90;99.90
21306;DHT22;10812;51.838;5.838;2023-08-24T12:56:42;28.90;99.90
21306;DHT22;10812;51.838;5.838;2023-08-24T12:59:10;29.00;99.90
21306;DHT22;10812;51.838;5.838;2023-08-24T13:01:38;29.10;99.90
21306;DHT22;10812;51.838;5.838;2023-08-24T13:04:07;29.10;99.90
21306;DHT22;10812;51.838;5.838;2023-08-24T13:06:35;29.20;99.90
21306;DHT22;10812;51.838;5.838;2023-08-24T13:09:04;28.90;99.90
21306;DHT22;10812;51.838;5.838;2023-08-24T13:11:33;28.60;99.90
21306;DHT22;10812;51.838;5.838;2023-08-24T13:14:01;28.50;99.90
21306;DHT22;10812;51.838;5.838;2023-08-24T13:16:29;28.30;99.90
21306;DHT22;10812;51.838;5.838;2023-08-24T13:18:57;28.10;99.90
21306;DHT22;10812;51.838;5.838;2023-08-24T13:21:25;28.10;99.90
21306;DHT22;10812;51.838;5.838;2023-08-24T13:23:54;28.00;99.90
21306;DHT22;10812;51.838;5.838;2023-08-24T13:26:23;28.00;99.90
21306;DHT22;10812;51.838;5.838;2023-08-24T13:28:51;28.10;99.90
21306;DHT22;10812;51.838;5.838;2023-08-24T13:31:20;28.20;99.90
21306;DHT22;10812;51.838;5.838;2023-08-24T13:33:48;28.30;99.90
21306;DHT22;10812;51.838;5.838;2023-08-24T13:36:16;28.20;99.90
21306;DHT22;10812;51.838;5.838;2023-08-24T13:38:44;28.00;99.90
21306;DHT22;10812;51.838;5.838;2023-08-24T13:41:12;27.90;99.90
21306;DHT22;10812;51.838;5.838;2023-08-24T13:43:42;27.80;99.90
21306;DHT22;10812;51.838;5.838;2023-08-24T13:46:10;27.90;99.90
21306;DHT22;10812;51.838;5.838;2023-08-24T13:48:39;27.80;99.90
21306;DHT22;10812;51.838;5.838;2023-08-24T13:51:07;27.70;99.90
21306;DHT22;10812;51.838;5.838;2023-08-24T13:53:36;27.70;99.90
21306;DHT22;10812;51.838;5.838;2023-08-24T13:56:05;27.60;99.90
21306;DHT22;10812;51.838;5.838;2023-08-24T13:58:33;27.60;99.90
21306;DHT22;10812;51.838;5.838;2023-08-24T14:01:02;27.50;99.90
21306;DHT22;10812;51.838;5.838;2023-08-24T14:03:30;27.40;99.90
21306;DHT22;10812;51.838;5.838;2023-08-24T14:05:59;27.40;99.90
21306;DHT22;10812;51.838;5.838;2023-08-24T14:08:27;27.20;99.90
21306;DHT22;10812;51.838;5.838;2023-08-24T14:10:56;27.10;99.90
21306;DHT22;10812;51.838;5.838;2023-08-24T14:13:24;27.00;99.90
21306;DHT22;10812;51.838;5.838;2023-08-24T14:15:52;26.80;99.90
21306;DHT22;10812;51.838;5.838;2023-08-24T14:18:22;26.60;99.90
21306;DHT22;10812;51.838;5.838;2023-08-24T14:20:51;26.60;99.90
21306;DHT22;10812;51.838;5.838;2023-08-24T14:23:19;26.50;99.90
21306;DHT22;10812;51.838;5.838;2023-08-24T14:25:47;26.40;99.90
21306;DHT22;10812;51.838;5.838;2023-08-24T14:28:22;26.40;99.90
21306;DHT22;10812;51.838;5.838;2023-08-24T14:30:50;26.40;99.90
21306;DHT22;10812;51.838;5.838;2023-08-24T14:33:19;26.40;99.90
21306;DHT22;10812;51.838;5.838;2023-08-24T14:35:52;26.30;99.90
21306;DHT22;10812;51.838;5.838;2023-08-24T14:38:21;26.40;99.90
21306;DHT22;10812;51.838;5.838;2023-08-24T14:40:49;26.30;99.90
21306;DHT22;10812;51.838;5.838;2023-08-24T14:43:17;26.20;99.90
21306;DHT22;10812;51.838;5.838;2023-08-24T14:45:45;26.20;99.90
21306;DHT22;10812;51.838;5.838;2023-08-24T14:48:14;26.20;99.90
21306;DHT22;10812;51.838;5.838;2023-08-24T14:50:42;26.20;99.90
21306;DHT22;10812;51.838;5.838;2023-08-24T14:53:12;26.30;99.90
21306;DHT22;10812;51.838;5.838;2023-08-24T14:55:41;26.30;99.90
21306;DHT22;10812;51.838;5.838;2023-08-24T14:58:09;26.30;99.90
21306;DHT22;10812;51.838;5.838;2023-08-24T15:00:37;26.30;99.90
21306;DHT22;10812;51.838;5.838;2023-08-24T15:03:05;26.30;99.90
21306;DHT22;10812;51.838;5.838;2023-08-24T15:05:38;26.30;99.90
21306;DHT22;10812;51.838;5.838;2023-08-24T15:08:07;26.30;99.90
21306;DHT22;10812;51.838;5.838;2023-08-24T15:10:36;26.10;99.90
21306;DHT22;10812;51.838;5.838;2023-08-24T15:13:04;26.30;99.90
21306;DHT22;10812;51.838;5.838;2023-08-24T15:15:35;26.10;99.90
21306;DHT22;10812;51.838;5.838;2023-08-24T15:18:04;26.10;99.90
21306;DHT22;10812;51.838;5.838;2023-08-24T15:20:32;26.10;99.90
21306;DHT22;10812;51.838;5.838;2023-08-24T15:23:00;26.10;99.90
21306;DHT22;10812;51.838;5.838;2023-08-24T15:25:29;26.10;99.90
21306;DHT22;10812;51.838;5.838;2023-08-24T15:27:58;25.90;99.90
21306;DHT22;10812;51.838;5.838;2023-08-24T15:30:26;25.80;99.90
21306;DHT22;10812;51.838;5.838;2023-08-24T15:32:54;25.80;99.90
21306;DHT22;10812;51.838;5.838;2023-08-24T15:35:22;25.80;99.90
21306;DHT22;10812;51.838;5.838;2023-08-24T15:37:52;25.80;99.90
21306;DHT22;10812;51.838;5.838;2023-08-24T15:40:21;25.80;99.90
21306;DHT22;10812;51.838;5.838;2023-08-24T15:42:49;25.80;99.90
21306;DHT22;10812;51.838;5.838;2023-08-24T15:45:18;25.80;99.90
21306;DHT22;10812;51.838;5.838;2023-08-24T15:47:46;25.70;99.90
21306;DHT22;10812;51.838;5.838;2023-08-24T15:50:15;25.70;99.90
21306;DHT22;10812;51.838;5.838;2023-08-24T15:52:43;25.60;99.90
21306;DHT22;10812;51.838;5.838;2023-08-24T15:55:11;25.70;99.90
21306;DHT22;10812;51.838;5.838;2023-08-24T15:57:39;25.60;99.90
21306;DHT22;10812;51.838;5.838;2023-08-24T16:00:08;25.50;99.90